Wetterdaten: Sonntag, 08.03.2015
Datum Zeit Temp. A. Feuchte A. Luftdruck Regen Wind Richtung Richtung Sonnenschein ET UV Solar Taupunkt Windchill Windben Empfang
08.03.2015 00:00 -0,5 C 75 % 1032,5 hPa 0,0 l/m 0,0 km/h (0 Bft) S-SW 198 0 min 0,000 mm 0,0 UV-I 0 W/m -4,4 C -0,5 C 0,0 km/h (0 Bft) 0,00 %
08.03.2015 00:15 -0,6 C 75 % 1032,6 hPa 0,0 l/m 0,0 km/h (0 Bft) S-SW 208 0 min 0,000 mm 0,0 UV-I 0 W/m -4,5 C -0,6 C 0,0 km/h (0 Bft) 0,00 %
08.03.2015 00:30 -1,0 C 77 % 1032,3 hPa 0,0 l/m 0,0 km/h (0 Bft) S-SW 194 0 min 0,000 mm 0,0 UV-I 0 W/m -4,5 C -1,0 C 0,0 km/h (0 Bft) 0,00 %
08.03.2015 00:45 -1,3 C 79 % 1032,4 hPa 0,0 l/m 0,0 km/h (0 Bft) S-SW 199 0 min 0,000 mm 0,0 UV-I 0 W/m -4,5 C -1,3 C 0,0 km/h (0 Bft) 0,00 %
08.03.2015 01:00 -1,5 C 81 % 1032,5 hPa 0,0 l/m 0,0 km/h (0 Bft) S-SW 213 0 min 0,000 mm 0,0 UV-I 0 W/m -4,3 C -1,5 C 0,0 km/h (0 Bft) 0,00 %
08.03.2015 01:15 -1,7 C 82 % 1032,4 hPa 0,0 l/m 0,0 km/h (0 Bft) S-SW 211 0 min 0,000 mm 0,0 UV-I 0 W/m -4,4 C -1,7 C 0,0 km/h (0 Bft) 0,00 %
08.03.2015 01:30 -1,8 C 83 % 1032,6 hPa 0,0 l/m 0,0 km/h (0 Bft) S-SW 196 0 min 0,000 mm 0,0 UV-I 0 W/m -4,3 C -1,8 C 0,0 km/h (0 Bft) 0,00 %
08.03.2015 01:45 -1,6 C 82 % 1032,3 hPa 0,0 l/m 0,0 km/h (0 Bft) S 175 0 min 0,000 mm 0,0 UV-I 0 W/m -4,3 C -1,6 C 0,0 km/h (0 Bft) 0,00 %
08.03.2015 02:00 -1,1 C 81 % 1032,2 hPa 0,0 l/m 0,0 km/h (0 Bft) S 176 0 min 0,000 mm 0,0 UV-I 0 W/m -3,9 C -1,1 C 0,0 km/h (0 Bft) 0,00 %
08.03.2015 02:15 -1,0 C 80 % 1031,9 hPa 0,0 l/m 0,0 km/h (0 Bft) S 186 0 min 0,000 mm 0,0 UV-I 0 W/m -4,0 C -1,0 C 0,0 km/h (0 Bft) 0,00 %
08.03.2015 02:30 -1,2 C 80 % 1031,7 hPa 0,0 l/m 0,0 km/h (0 Bft) S 177 0 min 0,000 mm 0,0 UV-I 0 W/m -4,2 C -1,2 C 0,0 km/h (0 Bft) 0,00 %
08.03.2015 02:45 -1,7 C 82 % 1031,8 hPa 0,0 l/m 0,0 km/h (0 Bft) S 184 0 min 0,000 mm 0,0 UV-I 0 W/m -4,4 C -1,7 C 0,0 km/h (0 Bft) 0,00 %
08.03.2015 03:00 -1,9 C 82 % 1031,7 hPa 0,0 l/m 0,0 km/h (0 Bft) S 184 0 min 0,000 mm 0,0 UV-I 0 W/m -4,6 C -1,9 C 0,0 km/h (0 Bft) 0,00 %
08.03.2015 03:15 -2,0 C 83 % 1031,7 hPa 0,0 l/m 0,0 km/h (0 Bft) SW 215 0 min 0,000 mm 0,0 UV-I 0 W/m -4,5 C -2,0 C 0,0 km/h (0 Bft) 0,00 %
08.03.2015 03:30 -2,2 C 79 % 1031,5 hPa 0,0 l/m 0,0 km/h (0 Bft) S-SW 193 0 min 0,000 mm 0,0 UV-I 0 W/m -5,3 C -2,2 C 0,0 km/h (0 Bft) 0,00 %
08.03.2015 03:45 -2,5 C 79 % 1031,4 hPa 0,0 l/m 0,0 km/h (0 Bft) S-SW 194 0 min 0,000 mm 0,0 UV-I 0 W/m -5,6 C -2,5 C 0,0 km/h (0 Bft) 0,00 %
08.03.2015 04:00 -2,7 C 80 % 1031,3 hPa 0,0 l/m 0,0 km/h (0 Bft) S-SW 194 0 min 0,000 mm 0,0 UV-I 0 W/m -5,7 C -2,7 C 0,0 km/h (0 Bft) 0,00 %
08.03.2015 04:15 -2,8 C 80 % 1031,4 hPa 0,0 l/m 0,0 km/h (0 Bft) S-SW 211 0 min 0,000 mm 0,0 UV-I 0 W/m -5,8 C -2,8 C 0,0 km/h (0 Bft) 0,00 %
08.03.2015 04:30 -2,7 C 81 % 1031,4 hPa 0,0 l/m 0,0 km/h (0 Bft) S-SW 199 0 min 0,000 mm 0,0 UV-I 0 W/m -5,5 C -2,7 C 0,0 km/h (0 Bft) 0,00 %
08.03.2015 04:45 -2,7 C 81 % 1031,3 hPa 0,0 l/m 0,0 km/h (0 Bft) S 182 0 min 0,000 mm 0,0 UV-I 0 W/m -5,5 C -2,7 C 0,0 km/h (0 Bft) 0,00 %
08.03.2015 05:00 -2,7 C 81 % 1031,4 hPa 0,0 l/m 0,0 km/h (0 Bft) S-SW 213 0 min 0,000 mm 0,0 UV-I 0 W/m -5,5 C -2,7 C 0,0 km/h (0 Bft) 0,00 %
08.03.2015 05:15 -2,9 C 81 % 1031,4 hPa 0,0 l/m 0,0 km/h (0 Bft) S-SW 213 0 min 0,000 mm 0,0 UV-I 0 W/m -5,7 C -2,9 C 0,0 km/h (0 Bft) 0,00 %
08.03.2015 05:30 -3,1 C 81 % 1031,6 hPa 0,0 l/m 0,0 km/h (0 Bft) SW 215 0 min 0,000 mm 0,0 UV-I 0 W/m -5,9 C -3,1 C 0,0 km/h (0 Bft) 0,00 %
08.03.2015 05:45 -2,9 C 81 % 1031,5 hPa 0,0 l/m 0,0 km/h (0 Bft) S 191 0 min 0,000 mm 0,0 UV-I 0 W/m -5,7 C -2,9 C 0,0 km/h (0 Bft) 0,00 %
08.03.2015 06:00 -2,9 C 81 % 1031,6 hPa 0,0 l/m 0,0 km/h (0 Bft) S-SW 210 0 min 0,000 mm 0,0 UV-I 0 W/m -5,7 C -2,9 C 0,0 km/h (0 Bft) 0,00 %
08.03.2015 06:15 -3,1 C 81 % 1031,6 hPa 0,0 l/m 0,0 km/h (0 Bft) S 179 0 min 0,000 mm 0,0 UV-I 0 W/m -5,9 C -3,1 C 0,0 km/h (0 Bft) 0,00 %
08.03.2015 06:30 -3,0 C 82 % 1031,6 hPa 0,0 l/m 0,0 km/h (0 Bft) S-SW 204 0 min 0,000 mm 0,0 UV-I 0 W/m -5,6 C -3,0 C 0,0 km/h (0 Bft) 0,00 %
08.03.2015 06:45 -2,8 C 82 % 1031,7 hPa 0,0 l/m 0,0 km/h (0 Bft) S-SW 201 0 min 0,000 mm 0,0 UV-I 6 W/m -5,4 C -2,8 C 0,0 km/h (0 Bft) 0,00 %
08.03.2015 07:00 -2,5 C 86 % 1031,5 hPa 0,0 l/m 0,0 km/h (0 Bft) S-SW 210 0 min 0,000 mm 0,0 UV-I 21 W/m -4,5 C -2,5 C 0,0 km/h (0 Bft) 0,00 %
08.03.2015 07:15 -1,8 C 85 % 1031,4 hPa 0,0 l/m 0,0 km/h (0 Bft) S 183 0 min 0,000 mm 0,0 UV-I 34 W/m -4,0 C -1,8 C 0,0 km/h (0 Bft) 0,00 %
08.03.2015 07:30 -1,4 C 84 % 1031,3 hPa 0,0 l/m 0,0 km/h (0 Bft) S-SW 202 0 min 0,000 mm 1,0 UV-I 46 W/m -3,7 C -1,4 C 0,0 km/h (0 Bft) 0,00 %
08.03.2015 07:45 -0,8 C 82 % 1031,3 hPa 0,0 l/m 0,0 km/h (0 Bft) SW 221 0 min 0,000 mm 1,0 UV-I 59 W/m -3,5 C -0,8 C 0,0 km/h (0 Bft) 0,00 %
08.03.2015 08:00 -0,1 C 80 % 1031,1 hPa 0,0 l/m 0,0 km/h (0 Bft) SW 220 0 min 0,000 mm 1,0 UV-I 103 W/m -3,1 C -0,1 C 0,0 km/h (0 Bft) 0,00 %
08.03.2015 08:15 0,3 C 74 % 1031,0 hPa 0,0 l/m 0,0 km/h (0 Bft) S-SW 201 0 min 0,000 mm 1,0 UV-I 91 W/m -3,8 C 0,3 C 0,0 km/h (0 Bft) 0,00 %
08.03.2015 08:30 0,7 C 73 % 1030,8 hPa 0,0 l/m 0,0 km/h (0 Bft) S 178 0 min 0,000 mm 1,0 UV-I 94 W/m -3,6 C 0,7 C 0,0 km/h (0 Bft) 0,00 %
08.03.2015 08:45 1,9 C 68 % 1030,4 hPa 0,0 l/m 1,4 km/h (1 Bft) O-SO 121 0 min 0,000 mm 2,0 UV-I 108 W/m -3,4 C 1,9 C 4,0 km/h (1 Bft) 0,00 %
08.03.2015 09:00 2,7 C 68 % 1030,1 hPa 0,0 l/m 0,0 km/h (0 Bft) S 175 0 min 0,000 mm 2,0 UV-I 146 W/m -2,6 C 2,7 C 0,0 km/h (0 Bft) 0,00 %
08.03.2015 09:15 2,2 C 66 % 1030,2 hPa 0,0 l/m 0,0 km/h (0 Bft) S 181 0 min 0,000 mm 2,0 UV-I 103 W/m -3,5 C 2,2 C 0,0 km/h (0 Bft) 0,00 %
08.03.2015 09:30 1,7 C 68 % 1030,1 hPa 0,0 l/m 1,8 km/h (1 Bft) S 179 0 min 0,000 mm 2,0 UV-I 156 W/m -3,6 C 1,7 C 7,9 km/h (2 Bft) 0,00 %
08.03.2015 09:45 2,3 C 68 % 1030,0 hPa 0,0 l/m 4,0 km/h (1 Bft) O-SO 102 0 min 0,000 mm 2,0 UV-I 209 W/m -3,0 C 2,3 C 7,9 km/h (2 Bft) 0,00 %
08.03.2015 10:00 2,8 C 67 % 1029,7 hPa 0,0 l/m 3,2 km/h (1 Bft) O-SO 105 0 min 0,000 mm 2,0 UV-I 212 W/m -2,7 C 2,8 C 4,0 km/h (1 Bft) 0,00 %
08.03.2015 10:15 3,2 C 65 % 1028,4 hPa 0,0 l/m 1,4 km/h (1 Bft) SO 130 0 min 0,000 mm 2,0 UV-I 201 W/m -2,7 C 3,2 C 4,0 km/h (1 Bft) 0,00 %
08.03.2015 10:30 3,7 C 64 % 1027,9 hPa 0,0 l/m 4,7 km/h (1 Bft) O-SO 104 0 min 0,000 mm 3,0 UV-I 264 W/m -2,5 C 3,7 C 7,9 km/h (2 Bft) 0,00 %
08.03.2015 10:45 4,3 C 60 % 1027,8 hPa 0,0 l/m 3,2 km/h (1 Bft) O-SO 123 0 min 0,000 mm 3,0 UV-I 272 W/m -2,8 C 4,3 C 4,0 km/h (1 Bft) 0,00 %
08.03.2015 11:00 4,7 C 61 % 1027,7 hPa 0,0 l/m 2,9 km/h (1 Bft) O-SO 112 0 min 0,000 mm 3,0 UV-I 270 W/m -2,2 C 4,7 C 4,0 km/h (1 Bft) 0,00 %
08.03.2015 11:15 5,1 C 61 % 1027,4 hPa 0,0 l/m 0,4 km/h (0 Bft) O 95 15 min 0,000 mm 3,0 UV-I 351 W/m -1,8 C 5,1 C 4,0 km/h (1 Bft) 0,00 %
08.03.2015 11:30 5,2 C 61 % 1027,3 hPa 0,0 l/m 3,2 km/h (1 Bft) O 93 15 min 0,000 mm 3,0 UV-I 332 W/m -1,7 C 5,2 C 7,9 km/h (2 Bft) 0,00 %
08.03.2015 11:45 5,7 C 60 % 1027,1 hPa 0,0 l/m 2,9 km/h (1 Bft) O-SO 116 15 min 0,000 mm 4,0 UV-I 390 W/m -1,4 C 5,7 C 4,0 km/h (1 Bft) 0,00 %
08.03.2015 12:00 6,0 C 60 % 1026,8 hPa 0,0 l/m 0,0 km/h (0 Bft) N-NW 336 0 min 0,000 mm 2,0 UV-I 118 W/m -1,2 C 6,0 C 0,0 km/h (0 Bft) 0,00 %
08.03.2015 12:15 6,4 C 61 % 1026,6 hPa 0,0 l/m 6,5 km/h (2 Bft) O-SO 117 0 min 0,000 mm 2,0 UV-I 123 W/m -0,6 C 6,3 C 7,9 km/h (2 Bft) 0,00 %
08.03.2015 12:30 6,5 C 59 % 1026,4 hPa 0,0 l/m 5,4 km/h (1 Bft) O-SO 112 0 min 0,000 mm 2,0 UV-I 114 W/m -0,9 C 6,5 C 7,9 km/h (2 Bft) 0,00 %
08.03.2015 12:45 6,9 C 60 % 1026,3 hPa 0,0 l/m 1,4 km/h (1 Bft) O 97 0 min 0,000 mm 2,0 UV-I 118 W/m -0,3 C 6,9 C 4,0 km/h (1 Bft) 0,00 %
08.03.2015 13:00 7,4 C 56 % 1025,8 hPa 0,0 l/m 2,9 km/h (1 Bft) S-SW 206 0 min 0,000 mm 2,0 UV-I 310 W/m -0,8 C 7,4 C 7,9 km/h (2 Bft) 0,00 %
08.03.2015 13:15 8,1 C 57 % 1025,4 hPa 0,0 l/m 8,3 km/h (2 Bft) O 96 0 min 0,000 mm 2,0 UV-I 315 W/m 0,1 C 6,6 C 11,9 km/h (2 Bft) 0,00 %
08.03.2015 13:30 8,4 C 50 % 1025,1 hPa 0,0 l/m 2,9 km/h (1 Bft) O-SO 102 15 min 0,000 mm 2,0 UV-I 320 W/m -1,4 C 8,4 C 4,0 km/h (1 Bft) 0,00 %
08.03.2015 13:45 9,0 C 47 % 1024,7 hPa 0,0 l/m 10,4 km/h (2 Bft) O-SO 104 15 min 0,000 mm 2,0 UV-I 325 W/m -1,7 C 6,3 C 11,9 km/h (2 Bft) 0,00 %
08.03.2015 14:00 9,5 C 43 % 1024,3 hPa 0,0 l/m 5,8 km/h (2 Bft) O 81 15 min 0,000 mm 2,0 UV-I 330 W/m -2,4 C 9,5 C 7,9 km/h (2 Bft) 0,00 %
08.03.2015 14:15 9,9 C 41 % 1024,1 hPa 0,0 l/m 4,0 km/h (1 Bft) O-SO 104 15 min 0,000 mm 2,0 UV-I 325 W/m -2,7 C 9,9 C 4,0 km/h (1 Bft) 0,00 %
08.03.2015 14:30 10,4 C 40 % 1023,8 hPa 0,0 l/m 10,4 km/h (2 Bft) O 83 15 min 0,000 mm 2,0 UV-I 320 W/m -2,6 C 7,8 C 11,9 km/h (2 Bft) 0,00 %
08.03.2015 14:45 10,6 C 33 % 1023,6 hPa 0,0 l/m 14,4 km/h (3 Bft) O 92 15 min 0,000 mm 2,0 UV-I 315 W/m -5,0 C 6,1 C 19,8 km/h (3 Bft) 0,00 %
08.03.2015 15:00 10,7 C 35 % 1023,7 hPa 0,0 l/m 4,0 km/h (1 Bft) O-NO 59 15 min 0,000 mm 2,0 UV-I 320 W/m -4,1 C 10,7 C 7,9 km/h (2 Bft) 0,00 %
08.03.2015 15:15 10,7 C 37 % 1023,4 hPa 0,0 l/m 12,2 km/h (2 Bft) O 91 15 min 0,000 mm 2,0 UV-I 333 W/m -3,4 C 7,2 C 15,8 km/h (3 Bft) 0,00 %
08.03.2015 15:30 10,8 C 41 % 1023,3 hPa 0,0 l/m 5,8 km/h (2 Bft) O-SO 111 15 min 0,000 mm 1,0 UV-I 333 W/m -1,9 C 10,8 C 7,9 km/h (2 Bft) 0,00 %
08.03.2015 15:45 10,9 C 40 % 1023,2 hPa 0,0 l/m 7,2 km/h (2 Bft) SO 127 15 min 0,000 mm 1,0 UV-I 345 W/m -2,2 C 10,3 C 7,9 km/h (2 Bft) 0,00 %
08.03.2015 16:00 10,8 C 43 % 1023,2 hPa 0,0 l/m 9,0 km/h (2 Bft) O 100 15 min 0,000 mm 1,0 UV-I 345 W/m -1,3 C 9,1 C 11,9 km/h (2 Bft) 0,00 %
08.03.2015 16:15 10,9 C 41 % 1023,2 hPa 0,0 l/m 4,7 km/h (1 Bft) O 87 15 min 0,000 mm 1,0 UV-I 379 W/m -1,8 C 10,9 C 7,9 km/h (2 Bft) 0,00 %
08.03.2015 16:30 10,8 C 42 % 1023,3 hPa 0,0 l/m 9,4 km/h (2 Bft) O 95 15 min 0,000 mm 1,0 UV-I 243 W/m -1,6 C 8,8 C 11,9 km/h (2 Bft) 0,00 %
08.03.2015 16:45 10,6 C 41 % 1023,5 hPa 0,0 l/m 15,5 km/h (3 Bft) O 80 15 min 0,000 mm 1,0 UV-I 150 W/m -2,1 C 5,7 C 19,8 km/h (3 Bft) 0,00 %
08.03.2015 17:00 10,1 C 42 % 1023,5 hPa 0,0 l/m 5,4 km/h (1 Bft) O 100 15 min 0,000 mm 1,0 UV-I 112 W/m -2,2 C 10,1 C 7,9 km/h (2 Bft) 0,00 %
08.03.2015 17:15 9,8 C 43 % 1023,8 hPa 0,0 l/m 4,0 km/h (1 Bft) O-SO 121 15 min 0,000 mm 0,0 UV-I 75 W/m -2,2 C 9,8 C 4,0 km/h (1 Bft) 0,00 %
08.03.2015 17:30 9,3 C 44 % 1024,0 hPa 0,0 l/m 0,4 km/h (0 Bft) SW 221 0 min 0,000 mm 0,0 UV-I 33 W/m -2,3 C 9,3 C 4,0 km/h (1 Bft) 0,00 %
08.03.2015 17:45 8,8 C 44 % 1024,3 hPa 0,0 l/m 1,8 km/h (1 Bft) O 99 15 min 0,000 mm 0,0 UV-I 16 W/m -2,8 C 8,8 C 4,0 km/h (1 Bft) 0,00 %
08.03.2015 18:00 8,5 C 43 % 1024,2 hPa 0,0 l/m 6,8 km/h (2 Bft) O 96 0 min 0,000 mm 0,0 UV-I 0 W/m -3,3 C 8,2 C 7,9 km/h (2 Bft) 0,00 %
08.03.2015 18:15 8,4 C 43 % 1024,5 hPa 0,0 l/m 11,5 km/h (2 Bft) O-SO 116 0 min 0,000 mm 0,0 UV-I 0 W/m -3,4 C 4,9 C 15,8 km/h (3 Bft) 0,00 %
08.03.2015 18:30 8,1 C 42 % 1024,5 hPa 0,0 l/m 9,0 km/h (2 Bft) SO 140 0 min 0,000 mm 0,0 UV-I 0 W/m -4,0 C 6,1 C 11,9 km/h (2 Bft) 0,00 %
08.03.2015 18:45 7,8 C 43 % 1024,4 hPa 0,0 l/m 4,0 km/h (1 Bft) O-SO 112 0 min 0,000 mm 0,0 UV-I 0 W/m -4,0 C 7,8 C 7,9 km/h (2 Bft) 0,00 %
08.03.2015 19:00 7,7 C 42 % 1024,7 hPa 0,0 l/m 9,7 km/h (2 Bft) O 92 0 min 0,000 mm 0,0 UV-I 0 W/m -4,4 C 5,2 C 15,8 km/h (3 Bft) 0,00 %
08.03.2015 19:15 7,3 C 41 % 1024,7 hPa 0,0 l/m 14,0 km/h (3 Bft) O 83 0 min 0,000 mm 0,0 UV-I 0 W/m -5,1 C 2,3 C 19,8 km/h (3 Bft) 0,00 %
08.03.2015 19:30 7,1 C 41 % 1024,8 hPa 0,0 l/m 11,9 km/h (2 Bft) O-NO 70 0 min 0,000 mm 0,0 UV-I 0 W/m -5,2 C 3,2 C 15,8 km/h (3 Bft) 0,00 %
08.03.2015 19:45 6,6 C 44 % 1025,1 hPa 0,0 l/m 11,5 km/h (2 Bft) O 91 0 min 0,000 mm 0,0 UV-I 0 W/m -4,8 C 2,9 C 15,8 km/h (3 Bft) 0,00 %
08.03.2015 20:00 6,4 C 41 % 1024,8 hPa 0,0 l/m 6,8 km/h (2 Bft) O 82 0 min 0,000 mm 0,0 UV-I 0 W/m -5,9 C 6,1 C 7,9 km/h (2 Bft) 0,00 %
08.03.2015 20:15 6,1 C 45 % 1025,0 hPa 0,0 l/m 9,4 km/h (2 Bft) O 94 0 min 0,000 mm 0,0 UV-I 0 W/m -4,9 C 3,7 C 19,8 km/h (3 Bft) 0,00 %
08.03.2015 20:30 5,8 C 46 % 1025,0 hPa 0,0 l/m 7,2 km/h (2 Bft) O 94 0 min 0,000 mm 0,0 UV-I 0 W/m -4,9 C 5,1 C 7,9 km/h (2 Bft) 0,00 %
08.03.2015 20:45 5,2 C 49 % 1025,0 hPa 0,0 l/m 10,8 km/h (2 Bft) S 172 0 min 0,000 mm 0,0 UV-I 0 W/m -4,6 C 1,7 C 11,9 km/h (2 Bft) 0,00 %
08.03.2015 21:00 5,2 C 48 % 1025,1 hPa 0,0 l/m 12,2 km/h (2 Bft) O 97 0 min 0,000 mm 0,0 UV-I 0 W/m -4,9 C 0,9 C 15,8 km/h (3 Bft) 0,00 %
08.03.2015 21:15 5,0 C 48 % 1024,9 hPa 0,0 l/m 4,3 km/h (1 Bft) O-SO 103 0 min 0,000 mm 0,0 UV-I 0 W/m -5,1 C 5,0 C 7,9 km/h (2 Bft) 0,00 %
08.03.2015 21:30 4,6 C 51 % 1024,9 hPa 0,0 l/m 5,4 km/h (1 Bft) O-SO 106 0 min 0,000 mm 0,0 UV-I 0 W/m -4,6 C 4,6 C 7,9 km/h (2 Bft) 0,00 %
08.03.2015 21:45 4,2 C 53 % 1024,9 hPa 0,0 l/m 13,3 km/h (3 Bft) O 98 0 min 0,000 mm 0,0 UV-I 0 W/m -4,5 C -1,0 C 19,8 km/h (3 Bft) 0,00 %
08.03.2015 22:00 3,8 C 53 % 1024,7 hPa 0,0 l/m 7,2 km/h (2 Bft) O-SO 120 0 min 0,000 mm 0,0 UV-I 0 W/m -4,9 C 3,1 C 7,9 km/h (2 Bft) 0,00 %
08.03.2015 22:15 3,5 C 55 % 1024,6 hPa 0,0 l/m 6,8 km/h (2 Bft) O 100 0 min 0,000 mm 0,0 UV-I 0 W/m -4,7 C 3,1 C 7,9 km/h (2 Bft) 0,00 %
08.03.2015 22:30 2,9 C 56 % 1024,7 hPa 0,0 l/m 0,4 km/h (0 Bft) NO 46 0 min 0,000 mm 0,0 UV-I 0 W/m -5,0 C 2,9 C 4,0 km/h (1 Bft) 0,00 %
08.03.2015 22:45 2,7 C 56 % 1024,7 hPa 0,0 l/m 0,0 km/h (0 Bft) S 187 0 min 0,000 mm 0,0 UV-I 0 W/m -5,2 C 2,7 C 0,0 km/h (0 Bft) 0,00 %
08.03.2015 23:00 2,9 C 53 % 1024,8 hPa 0,0 l/m 6,5 km/h (2 Bft) O 98 0 min 0,000 mm 0,0 UV-I 0 W/m -5,7 C 2,8 C 7,9 km/h (2 Bft) 0,00 %
08.03.2015 23:15 2,9 C 51 % 1024,8 hPa 0,0 l/m 0,0 km/h (0 Bft) S 177 0 min 0,000 mm 0,0 UV-I 0 W/m -6,2 C 2,9 C 0,0 km/h (0 Bft) 0,00 %
08.03.2015 23:30 2,5 C 52 % 1024,9 hPa 0,0 l/m 0,0 km/h (0 Bft) O-SO 122 0 min 0,000 mm 0,0 UV-I 0 W/m -6,3 C 2,5 C 0,0 km/h (0 Bft) 0,00 %
08.03.2015 23:45 2,4 C 53 % 1024,8 hPa 0,0 l/m 0,0 km/h (0 Bft) S 171 0 min 0,000 mm 0,0 UV-I 0 W/m -6,2 C 2,4 C 0,0 km/h (0 Bft) 0,00 %
_ Min-Zeit 05:30 14:45 15:45 - 00:00 - - - - - - 23:30 05:30 00:00 00:00
Minimum _ -3,1 C 33 % 1023,2 hPa - 0,0 km/h (0 Bft) - - - - - - -6,3 C -3,1 C 0,0 km/h (0 Bft) 0,00 %
_ Max-Zeit 15:45 07:00 00:15 00:00 16:45 - - 11:15 00:00 11:45 11:45 13:15 16:15 14:45 00:00
Maximum _ 10,9 C 86 % 1032,6 hPa 0,0 l/m 15,5 km/h
O (3 Bft)
- - 15 min 0,000 mm 4,0 UV-I 390 W/m 0,1 C 10,9 C 19,8 km/h
O (3 Bft)
0,00 %
Durchschnitt _ 3,5 C 61 % 1027,7 hPa #0,0 l/m 3,7 km/h (1 Bft) O - #5:00 h #0,000 mm 1,9 UV-I 204 W/m -3,8 C 2,9 C 5,3 km/h (1 Bft) 0,00 %